sensor_id;sensor_type;location;lat;lon;timestamp;P1;durP1;ratioP1;P2;durP2;ratioP2
20375;SDS011;10347;51.828;6.466;2023-10-09T00:02:10;13.52;;;8.32;;
20375;SDS011;10347;51.828;6.466;2023-10-09T00:04:37;15.27;;;8.57;;
20375;SDS011;10347;51.828;6.466;2023-10-09T00:07:06;15.70;;;9.82;;
20375;SDS011;10347;51.828;6.466;2023-10-09T00:09:33;18.23;;;10.07;;
20375;SDS011;10347;51.828;6.466;2023-10-09T00:12:11;15.48;;;8.90;;
20375;SDS011;10347;51.828;6.466;2023-10-09T00:14:47;16.15;;;10.07;;
20375;SDS011;10347;51.828;6.466;2023-10-09T00:17:15;17.45;;;10.02;;
20375;SDS011;10347;51.828;6.466;2023-10-09T00:19:41;14.68;;;10.05;;
20375;SDS011;10347;51.828;6.466;2023-10-09T00:22:08;13.07;;;8.73;;
20375;SDS011;10347;51.828;6.466;2023-10-09T00:24:43;17.48;;;10.82;;
20375;SDS011;10347;51.828;6.466;2023-10-09T00:27:11;24.55;;;11.02;;
20375;SDS011;10347;51.828;6.466;2023-10-09T00:29:37;14.45;;;9.90;;
20375;SDS011;10347;51.828;6.466;2023-10-09T00:32:10;18.05;;;10.68;;
20375;SDS011;10347;51.828;6.466;2023-10-09T00:34:47;20.48;;;11.77;;
20375;SDS011;10347;51.828;6.466;2023-10-09T00:37:15;16.77;;;11.00;;
20375;SDS011;10347;51.828;6.466;2023-10-09T00:39:45;20.85;;;11.82;;
20375;SDS011;10347;51.828;6.466;2023-10-09T00:42:13;18.10;;;10.98;;
20375;SDS011;10347;51.828;6.466;2023-10-09T00:44:50;18.52;;;11.75;;
20375;SDS011;10347;51.828;6.466;2023-10-09T00:47:16;19.02;;;11.52;;
20375;SDS011;10347;51.828;6.466;2023-10-09T00:49:46;20.02;;;10.93;;
20375;SDS011;10347;51.828;6.466;2023-10-09T00:52:28;18.40;;;10.52;;
20375;SDS011;10347;51.828;6.466;2023-10-09T00:55:14;22.30;;;11.18;;
20375;SDS011;10347;51.828;6.466;2023-10-09T00:57:46;18.83;;;11.88;;
20375;SDS011;10347;51.828;6.466;2023-10-09T01:00:22;18.25;;;11.27;;
20375;SDS011;10347;51.828;6.466;2023-10-09T01:03:01;20.63;;;11.88;;
20375;SDS011;10347;51.828;6.466;2023-10-09T01:05:43;20.27;;;12.52;;
20375;SDS011;10347;51.828;6.466;2023-10-09T01:08:40;18.63;;;10.75;;
20375;SDS011;10347;51.828;6.466;2023-10-09T01:11:12;22.60;;;12.73;;
20375;SDS011;10347;51.828;6.466;2023-10-09T01:13:48;19.42;;;12.48;;
20375;SDS011;10347;51.828;6.466;2023-10-09T01:16:21;19.50;;;12.73;;
20375;SDS011;10347;51.828;6.466;2023-10-09T01:18:49;19.48;;;11.95;;
20375;SDS011;10347;51.828;6.466;2023-10-09T01:21:15;23.85;;;13.75;;
20375;SDS011;10347;51.828;6.466;2023-10-09T01:23:42;21.10;;;12.77;;
20375;SDS011;10347;51.828;6.466;2023-10-09T01:26:27;21.48;;;12.52;;
20375;SDS011;10347;51.828;6.466;2023-10-09T01:29:04;18.92;;;11.75;;
20375;SDS011;10347;51.828;6.466;2023-10-09T01:31:43;18.25;;;11.93;;
20375;SDS011;10347;51.828;6.466;2023-10-09T01:34:26;17.70;;;11.48;;
20375;SDS011;10347;51.828;6.466;2023-10-09T01:37:14;21.50;;;13.52;;
20375;SDS011;10347;51.828;6.466;2023-10-09T01:39:50;19.48;;;12.30;;
20375;SDS011;10347;51.828;6.466;2023-10-09T01:42:16;19.42;;;12.25;;
20375;SDS011;10347;51.828;6.466;2023-10-09T01:44:49;16.17;;;11.43;;
20375;SDS011;10347;51.828;6.466;2023-10-09T01:47:15;18.50;;;11.93;;
20375;SDS011;10347;51.828;6.466;2023-10-09T01:49:43;20.77;;;12.65;;
20375;SDS011;10347;51.828;6.466;2023-10-09T01:52:13;21.00;;;12.52;;
20375;SDS011;10347;51.828;6.466;2023-10-09T01:54:46;22.63;;;12.63;;
20375;SDS011;10347;51.828;6.466;2023-10-09T01:57:16;24.38;;;14.23;;
20375;SDS011;10347;51.828;6.466;2023-10-09T01:59:49;20.77;;;13.52;;
20375;SDS011;10347;51.828;6.466;2023-10-09T02:02:19;23.70;;;12.68;;
20375;SDS011;10347;51.828;6.466;2023-10-09T02:04:52;19.95;;;12.82;;
20375;SDS011;10347;51.828;6.466;2023-10-09T02:07:19;21.70;;;13.70;;
20375;SDS011;10347;51.828;6.466;2023-10-09T02:09:52;18.02;;;12.05;;
20375;SDS011;10347;51.828;6.466;2023-10-09T02:12:21;22.05;;;12.23;;
20375;SDS011;10347;51.828;6.466;2023-10-09T02:14:48;22.77;;;12.57;;
20375;SDS011;10347;51.828;6.466;2023-10-09T02:17:14;24.52;;;13.90;;
20375;SDS011;10347;51.828;6.466;2023-10-09T02:19:44;21.45;;;13.98;;
20375;SDS011;10347;51.828;6.466;2023-10-09T02:22:14;21.70;;;13.55;;
20375;SDS011;10347;51.828;6.466;2023-10-09T02:24:41;23.70;;;13.85;;
20375;SDS011;10347;51.828;6.466;2023-10-09T02:27:13;20.95;;;13.23;;
20375;SDS011;10347;51.828;6.466;2023-10-09T02:29:45;22.48;;;13.73;;
20375;SDS011;10347;51.828;6.466;2023-10-09T02:32:12;22.25;;;12.63;;
20375;SDS011;10347;51.828;6.466;2023-10-09T02:34:39;21.52;;;12.93;;
20375;SDS011;10347;51.828;6.466;2023-10-09T02:37:05;27.75;;;16.30;;
20375;SDS011;10347;51.828;6.466;2023-10-09T02:39:37;21.63;;;13.88;;
20375;SDS011;10347;51.828;6.466;2023-10-09T02:42:08;25.00;;;14.25;;
20375;SDS011;10347;51.828;6.466;2023-10-09T02:44:37;22.48;;;13.35;;
20375;SDS011;10347;51.828;6.466;2023-10-09T02:47:11;19.83;;;13.60;;
20375;SDS011;10347;51.828;6.466;2023-10-09T02:49:45;23.60;;;13.93;;
20375;SDS011;10347;51.828;6.466;2023-10-09T02:52:14;24.10;;;14.57;;
20375;SDS011;10347;51.828;6.466;2023-10-09T02:54:43;22.35;;;13.43;;
20375;SDS011;10347;51.828;6.466;2023-10-09T02:57:12;22.40;;;14.38;;
20375;SDS011;10347;51.828;6.466;2023-10-09T02:59:53;26.70;;;14.65;;
20375;SDS011;10347;51.828;6.466;2023-10-09T03:02:18;25.92;;;14.75;;
20375;SDS011;10347;51.828;6.466;2023-10-09T03:04:44;23.10;;;13.65;;
20375;SDS011;10347;51.828;6.466;2023-10-09T03:07:10;21.83;;;15.45;;
20375;SDS011;10347;51.828;6.466;2023-10-09T03:09:38;24.00;;;14.93;;
20375;SDS011;10347;51.828;6.466;2023-10-09T03:12:06;21.00;;;13.73;;
20375;SDS011;10347;51.828;6.466;2023-10-09T03:14:35;18.27;;;12.23;;
20375;SDS011;10347;51.828;6.466;2023-10-09T03:17:03;25.13;;;14.38;;
20375;SDS011;10347;51.828;6.466;2023-10-09T03:19:29;26.08;;;15.10;;
20375;SDS011;10347;51.828;6.466;2023-10-09T03:21:56;18.90;;;13.68;;
20375;SDS011;10347;51.828;6.466;2023-10-09T03:24:22;19.52;;;13.48;;
20375;SDS011;10347;51.828;6.466;2023-10-09T03:26:48;25.45;;;14.07;;
20375;SDS011;10347;51.828;6.466;2023-10-09T03:29:14;17.42;;;12.30;;
20375;SDS011;10347;51.828;6.466;2023-10-09T03:31:40;20.75;;;13.32;;
20375;SDS011;10347;51.828;6.466;2023-10-09T03:34:08;18.90;;;13.05;;
20375;SDS011;10347;51.828;6.466;2023-10-09T03:36:36;22.60;;;13.80;;
20375;SDS011;10347;51.828;6.466;2023-10-09T03:39:05;23.02;;;13.88;;
20375;SDS011;10347;51.828;6.466;2023-10-09T03:41:49;22.10;;;13.63;;
20375;SDS011;10347;51.828;6.466;2023-10-09T03:44:15;21.27;;;14.35;;
20375;SDS011;10347;51.828;6.466;2023-10-09T03:46:44;19.20;;;13.30;;
20375;SDS011;10347;51.828;6.466;2023-10-09T03:49:10;20.90;;;13.40;;
20375;SDS011;10347;51.828;6.466;2023-10-09T03:51:36;21.15;;;13.15;;
20375;SDS011;10347;51.828;6.466;2023-10-09T03:54:02;20.15;;;13.63;;
20375;SDS011;10347;51.828;6.466;2023-10-09T03:56:32;18.95;;;12.43;;
20375;SDS011;10347;51.828;6.466;2023-10-09T03:58:58;20.02;;;12.80;;
20375;SDS011;10347;51.828;6.466;2023-10-09T04:01:24;21.00;;;13.20;;
20375;SDS011;10347;51.828;6.466;2023-10-09T04:03:53;22.23;;;13.27;;
20375;SDS011;10347;51.828;6.466;2023-10-09T04:06:28;21.45;;;13.57;;
20375;SDS011;10347;51.828;6.466;2023-10-09T04:09:00;24.27;;;14.00;;
20375;SDS011;10347;51.828;6.466;2023-10-09T04:11:49;17.10;;;12.13;;
20375;SDS011;10347;51.828;6.466;2023-10-09T04:14:42;21.92;;;14.23;;
20375;SDS011;10347;51.828;6.466;2023-10-09T04:17:13;20.38;;;14.05;;
20375;SDS011;10347;51.828;6.466;2023-10-09T04:19:48;19.05;;;12.93;;
20375;SDS011;10347;51.828;6.466;2023-10-09T04:22:33;16.55;;;11.50;;
20375;SDS011;10347;51.828;6.466;2023-10-09T04:25:04;19.60;;;12.38;;
20375;SDS011;10347;51.828;6.466;2023-10-09T04:27:39;17.42;;;12.00;;
20375;SDS011;10347;51.828;6.466;2023-10-09T04:30:09;21.05;;;12.80;;
20375;SDS011;10347;51.828;6.466;2023-10-09T04:32:40;20.80;;;13.10;;
20375;SDS011;10347;51.828;6.466;2023-10-09T04:35:10;17.95;;;12.40;;
20375;SDS011;10347;51.828;6.466;2023-10-09T04:37:49;18.10;;;11.52;;
20375;SDS011;10347;51.828;6.466;2023-10-09T04:40:28;14.88;;;10.63;;
20375;SDS011;10347;51.828;6.466;2023-10-09T04:43:13;16.55;;;11.35;;
20375;SDS011;10347;51.828;6.466;2023-10-09T04:45:45;16.63;;;11.90;;
20375;SDS011;10347;51.828;6.466;2023-10-09T04:48:27;18.70;;;12.85;;
20375;SDS011;10347;51.828;6.466;2023-10-09T04:51:02;19.98;;;12.40;;
20375;SDS011;10347;51.828;6.466;2023-10-09T04:53:57;14.75;;;10.95;;
20375;SDS011;10347;51.828;6.466;2023-10-09T04:56:37;21.42;;;12.45;;
20375;SDS011;10347;51.828;6.466;2023-10-09T04:59:16;19.08;;;12.80;;
20375;SDS011;10347;51.828;6.466;2023-10-09T05:01:50;15.70;;;11.65;;
20375;SDS011;10347;51.828;6.466;2023-10-09T05:04:23;16.33;;;11.60;;
20375;SDS011;10347;51.828;6.466;2023-10-09T05:07:09;16.65;;;11.43;;
20375;SDS011;10347;51.828;6.466;2023-10-09T05:10:10;19.80;;;11.95;;
20375;SDS011;10347;51.828;6.466;2023-10-09T05:12:43;17.33;;;11.55;;
20375;SDS011;10347;51.828;6.466;2023-10-09T05:15:21;18.73;;;12.57;;
20375;SDS011;10347;51.828;6.466;2023-10-09T05:17:52;16.88;;;11.13;;
20375;SDS011;10347;51.828;6.466;2023-10-09T05:20:21;21.30;;;12.18;;
20375;SDS011;10347;51.828;6.466;2023-10-09T05:22:52;15.98;;;10.95;;
20375;SDS011;10347;51.828;6.466;2023-10-09T05:25:32;16.38;;;11.68;;
20375;SDS011;10347;51.828;6.466;2023-10-09T05:28:17;17.27;;;11.82;;
20375;SDS011;10347;51.828;6.466;2023-10-09T05:31:08;16.23;;;11.55;;
20375;SDS011;10347;51.828;6.466;2023-10-09T05:33:34;18.10;;;11.38;;
20375;SDS011;10347;51.828;6.466;2023-10-09T05:36:05;16.48;;;11.65;;
20375;SDS011;10347;51.828;6.466;2023-10-09T05:38:49;19.00;;;12.98;;
20375;SDS011;10347;51.828;6.466;2023-10-09T05:41:42;16.98;;;11.60;;
20375;SDS011;10347;51.828;6.466;2023-10-09T05:44:16;13.95;;;10.43;;
20375;SDS011;10347;51.828;6.466;2023-10-09T05:47:14;16.30;;;11.05;;
20375;SDS011;10347;51.828;6.466;2023-10-09T05:50:09;18.33;;;12.23;;
20375;SDS011;10347;51.828;6.466;2023-10-09T05:52:34;17.73;;;11.63;;
20375;SDS011;10347;51.828;6.466;2023-10-09T05:55:03;22.17;;;13.35;;
20375;SDS011;10347;51.828;6.466;2023-10-09T05:57:44;17.95;;;12.13;;
20375;SDS011;10347;51.828;6.466;2023-10-09T06:00:31;16.33;;;11.40;;
20375;SDS011;10347;51.828;6.466;2023-10-09T06:03:15;25.52;;;13.85;;
20375;SDS011;10347;51.828;6.466;2023-10-09T06:05:47;17.67;;;12.40;;
20375;SDS011;10347;51.828;6.466;2023-10-09T06:08:23;17.88;;;12.18;;
20375;SDS011;10347;51.828;6.466;2023-10-09T06:11:14;18.13;;;11.98;;
20375;SDS011;10347;51.828;6.466;2023-10-09T06:13:58;19.50;;;12.52;;
20375;SDS011;10347;51.828;6.466;2023-10-09T06:16:28;16.23;;;11.00;;
20375;SDS011;10347;51.828;6.466;2023-10-09T06:19:07;18.10;;;11.25;;
20375;SDS011;10347;51.828;6.466;2023-10-09T06:21:36;15.98;;;11.68;;
20375;SDS011;10347;51.828;6.466;2023-10-09T06:24:25;15.98;;;11.85;;
20375;SDS011;10347;51.828;6.466;2023-10-09T06:27:09;15.65;;;11.13;;
20375;SDS011;10347;51.828;6.466;2023-10-09T06:29:36;20.55;;;11.45;;
20375;SDS011;10347;51.828;6.466;2023-10-09T06:32:02;15.13;;;11.80;;
20375;SDS011;10347;51.828;6.466;2023-10-09T06:34:49;14.15;;;10.85;;
20375;SDS011;10347;51.828;6.466;2023-10-09T06:37:17;16.30;;;11.13;;
20375;SDS011;10347;51.828;6.466;2023-10-09T06:39:50;16.98;;;11.43;;
20375;SDS011;10347;51.828;6.466;2023-10-09T06:42:36;17.10;;;11.10;;
20375;SDS011;10347;51.828;6.466;2023-10-09T06:45:10;18.13;;;11.85;;
20375;SDS011;10347;51.828;6.466;2023-10-09T06:47:39;17.55;;;11.50;;
20375;SDS011;10347;51.828;6.466;2023-10-09T06:50:18;15.68;;;11.00;;
20375;SDS011;10347;51.828;6.466;2023-10-09T06:52:50;16.73;;;11.13;;
20375;SDS011;10347;51.828;6.466;2023-10-09T06:55:23;16.45;;;10.82;;
20375;SDS011;10347;51.828;6.466;2023-10-09T06:58:00;18.05;;;12.80;;
20375;SDS011;10347;51.828;6.466;2023-10-09T07:00:38;19.85;;;12.98;;
20375;SDS011;10347;51.828;6.466;2023-10-09T07:03:22;21.30;;;13.45;;
20375;SDS011;10347;51.828;6.466;2023-10-09T07:06:10;19.13;;;12.05;;
20375;SDS011;10347;51.828;6.466;2023-10-09T07:09:11;19.75;;;13.88;;
20375;SDS011;10347;51.828;6.466;2023-10-09T07:11:40;19.27;;;12.05;;
20375;SDS011;10347;51.828;6.466;2023-10-09T07:14:35;18.52;;;12.00;;
20375;SDS011;10347;51.828;6.466;2023-10-09T07:17:07;15.55;;;11.32;;
20375;SDS011;10347;51.828;6.466;2023-10-09T07:19:45;15.02;;;10.98;;
20375;SDS011;10347;51.828;6.466;2023-10-09T07:22:11;18.35;;;11.55;;
20375;SDS011;10347;51.828;6.466;2023-10-09T07:24:47;16.70;;;12.10;;
20375;SDS011;10347;51.828;6.466;2023-10-09T07:27:30;22.60;;;11.93;;
20375;SDS011;10347;51.828;6.466;2023-10-09T07:30:19;20.80;;;12.82;;
20375;SDS011;10347;51.828;6.466;2023-10-09T07:33:01;17.98;;;12.38;;
20375;SDS011;10347;51.828;6.466;2023-10-09T07:35:37;17.70;;;11.10;;
20375;SDS011;10347;51.828;6.466;2023-10-09T07:38:16;15.15;;;10.98;;
20375;SDS011;10347;51.828;6.466;2023-10-09T07:40:44;15.57;;;11.57;;
20375;SDS011;10347;51.828;6.466;2023-10-09T07:43:33;20.17;;;13.10;;
20375;SDS011;10347;51.828;6.466;2023-10-09T07:46:15;15.63;;;11.10;;
20375;SDS011;10347;51.828;6.466;2023-10-09T07:49:04;18.83;;;12.15;;
20375;SDS011;10347;51.828;6.466;2023-10-09T07:51:34;21.13;;;13.35;;
20375;SDS011;10347;51.828;6.466;2023-10-09T07:54:01;21.10;;;13.10;;
20375;SDS011;10347;51.828;6.466;2023-10-09T07:56:37;20.80;;;12.13;;
20375;SDS011;10347;51.828;6.466;2023-10-09T07:59:08;18.35;;;12.32;;
20375;SDS011;10347;51.828;6.466;2023-10-09T08:01:41;17.35;;;11.82;;
20375;SDS011;10347;51.828;6.466;2023-10-09T08:04:40;18.95;;;12.35;;
20375;SDS011;10347;51.828;6.466;2023-10-09T08:07:15;17.25;;;12.18;;
20375;SDS011;10347;51.828;6.466;2023-10-09T08:10:00;17.35;;;12.88;;
20375;SDS011;10347;51.828;6.466;2023-10-09T08:12:38;21.95;;;12.98;;
20375;SDS011;10347;51.828;6.466;2023-10-09T08:15:14;21.48;;;12.20;;
20375;SDS011;10347;51.828;6.466;2023-10-09T08:17:55;21.52;;;13.13;;
20375;SDS011;10347;51.828;6.466;2023-10-09T08:20:24;18.90;;;13.05;;
20375;SDS011;10347;51.828;6.466;2023-10-09T08:22:54;18.98;;;11.68;;
20375;SDS011;10347;51.828;6.466;2023-10-09T08:25:23;18.23;;;12.63;;
20375;SDS011;10347;51.828;6.466;2023-10-09T08:28:02;18.95;;;11.98;;
20375;SDS011;10347;51.828;6.466;2023-10-09T08:30:54;15.55;;;11.45;;
20375;SDS011;10347;51.828;6.466;2023-10-09T08:33:19;15.90;;;10.43;;
20375;SDS011;10347;51.828;6.466;2023-10-09T08:35:54;16.85;;;11.23;;
20375;SDS011;10347;51.828;6.466;2023-10-09T08:38:26;14.45;;;10.52;;
20375;SDS011;10347;51.828;6.466;2023-10-09T08:41:05;16.30;;;11.43;;
20375;SDS011;10347;51.828;6.466;2023-10-09T08:43:40;14.20;;;11.00;;
20375;SDS011;10347;51.828;6.466;2023-10-09T08:46:11;18.50;;;12.05;;
20375;SDS011;10347;51.828;6.466;2023-10-09T08:48:43;17.77;;;12.30;;
20375;SDS011;10347;51.828;6.466;2023-10-09T08:51:10;16.88;;;11.23;;
20375;SDS011;10347;51.828;6.466;2023-10-09T08:53:35;18.25;;;10.93;;
20375;SDS011;10347;51.828;6.466;2023-10-09T08:56:09;19.25;;;11.88;;
20375;SDS011;10347;51.828;6.466;2023-10-09T08:58:35;20.52;;;12.43;;
20375;SDS011;10347;51.828;6.466;2023-10-09T09:01:05;20.80;;;13.32;;
20375;SDS011;10347;51.828;6.466;2023-10-09T09:03:41;22.23;;;12.98;;
20375;SDS011;10347;51.828;6.466;2023-10-09T09:06:10;22.35;;;12.30;;
20375;SDS011;10347;51.828;6.466;2023-10-09T09:08:37;21.83;;;13.05;;
20375;SDS011;10347;51.828;6.466;2023-10-09T09:13:42;17.45;;;11.80;;
20375;SDS011;10347;51.828;6.466;2023-10-09T09:18:54;20.63;;;13.20;;
20375;SDS011;10347;51.828;6.466;2023-10-09T09:21:33;19.13;;;12.23;;
20375;SDS011;10347;51.828;6.466;2023-10-09T09:24:10;23.83;;;13.13;;
20375;SDS011;10347;51.828;6.466;2023-10-09T09:26:39;19.05;;;12.93;;
20375;SDS011;10347;51.828;6.466;2023-10-09T09:29:12;20.67;;;12.85;;
20375;SDS011;10347;51.828;6.466;2023-10-09T09:31:39;20.67;;;12.73;;
20375;SDS011;10347;51.828;6.466;2023-10-09T09:34:17;19.20;;;12.55;;
20375;SDS011;10347;51.828;6.466;2023-10-09T09:36:49;19.60;;;12.65;;
20375;SDS011;10347;51.828;6.466;2023-10-09T09:39:22;18.15;;;12.45;;
20375;SDS011;10347;51.828;6.466;2023-10-09T09:41:55;22.63;;;13.18;;
20375;SDS011;10347;51.828;6.466;2023-10-09T09:44:32;19.55;;;13.07;;
20375;SDS011;10347;51.828;6.466;2023-10-09T09:47:08;21.77;;;12.88;;
20375;SDS011;10347;51.828;6.466;2023-10-09T09:49:39;17.70;;;11.30;;
20375;SDS011;10347;51.828;6.466;2023-10-09T09:52:06;21.80;;;14.45;;
20375;SDS011;10347;51.828;6.466;2023-10-09T09:54:38;19.55;;;12.90;;
20375;SDS011;10347;51.828;6.466;2023-10-09T09:57:05;19.98;;;12.50;;
20375;SDS011;10347;51.828;6.466;2023-10-09T09:59:36;20.05;;;12.93;;
20375;SDS011;10347;51.828;6.466;2023-10-09T10:02:05;19.10;;;12.93;;
20375;SDS011;10347;51.828;6.466;2023-10-09T10:04:36;18.15;;;11.80;;
20375;SDS011;10347;51.828;6.466;2023-10-09T10:07:06;18.02;;;12.18;;
20375;SDS011;10347;51.828;6.466;2023-10-09T10:09:40;20.42;;;13.02;;
20375;SDS011;10347;51.828;6.466;2023-10-09T10:12:10;20.02;;;12.65;;
20375;SDS011;10347;51.828;6.466;2023-10-09T10:14:58;21.35;;;13.05;;
20375;SDS011;10347;51.828;6.466;2023-10-09T10:17:56;20.30;;;12.45;;
20375;SDS011;10347;51.828;6.466;2023-10-09T10:20:24;18.98;;;12.55;;
20375;SDS011;10347;51.828;6.466;2023-10-09T10:22:51;19.08;;;11.82;;
20375;SDS011;10347;51.828;6.466;2023-10-09T10:25:42;20.33;;;12.02;;
20375;SDS011;10347;51.828;6.466;2023-10-09T10:28:24;18.23;;;12.73;;
20375;SDS011;10347;51.828;6.466;2023-10-09T10:31:10;19.55;;;12.98;;
20375;SDS011;10347;51.828;6.466;2023-10-09T10:36:20;22.90;;;13.05;;
20375;SDS011;10347;51.828;6.466;2023-10-09T10:38:47;21.48;;;13.13;;
20375;SDS011;10347;51.828;6.466;2023-10-09T10:41:35;20.45;;;12.80;;
20375;SDS011;10347;51.828;6.466;2023-10-09T10:44:13;17.30;;;10.73;;
20375;SDS011;10347;51.828;6.466;2023-10-09T10:46:59;18.45;;;11.73;;
20375;SDS011;10347;51.828;6.466;2023-10-09T10:49:26;18.92;;;11.88;;
20375;SDS011;10347;51.828;6.466;2023-10-09T10:52:01;18.75;;;12.25;;
20375;SDS011;10347;51.828;6.466;2023-10-09T10:54:40;16.52;;;11.57;;
20375;SDS011;10347;51.828;6.466;2023-10-09T10:57:21;17.88;;;11.25;;
20375;SDS011;10347;51.828;6.466;2023-10-09T11:00:15;21.48;;;12.20;;
20375;SDS011;10347;51.828;6.466;2023-10-09T11:03:00;19.90;;;11.52;;
20375;SDS011;10347;51.828;6.466;2023-10-09T11:05:44;18.13;;;10.63;;
20375;SDS011;10347;51.828;6.466;2023-10-09T11:08:15;20.42;;;12.15;;
20375;SDS011;10347;51.828;6.466;2023-10-09T11:10:47;21.55;;;11.73;;
20375;SDS011;10347;51.828;6.466;2023-10-09T11:13:25;18.15;;;11.00;;
20375;SDS011;10347;51.828;6.466;2023-10-09T11:16:01;20.63;;;11.85;;
20375;SDS011;10347;51.828;6.466;2023-10-09T11:18:53;18.15;;;11.90;;
20375;SDS011;10347;51.828;6.466;2023-10-09T11:21:22;18.55;;;11.73;;
20375;SDS011;10347;51.828;6.466;2023-10-09T11:23:55;20.65;;;11.77;;
20375;SDS011;10347;51.828;6.466;2023-10-09T11:26:46;15.70;;;10.10;;
20375;SDS011;10347;51.828;6.466;2023-10-09T11:29:18;16.20;;;9.90;;
20375;SDS011;10347;51.828;6.466;2023-10-09T11:32:07;14.70;;;9.73;;
20375;SDS011;10347;51.828;6.466;2023-10-09T11:34:43;19.63;;;11.45;;
20375;SDS011;10347;51.828;6.466;2023-10-09T11:37:17;21.65;;;12.27;;
20375;SDS011;10347;51.828;6.466;2023-10-09T11:39:56;18.25;;;11.00;;
20375;SDS011;10347;51.828;6.466;2023-10-09T11:42:28;15.70;;;10.35;;
20375;SDS011;10347;51.828;6.466;2023-10-09T11:45:20;15.63;;;9.55;;
20375;SDS011;10347;51.828;6.466;2023-10-09T11:47:54;16.92;;;9.98;;
20375;SDS011;10347;51.828;6.466;2023-10-09T11:53:17;17.13;;;9.88;;
20375;SDS011;10347;51.828;6.466;2023-10-09T11:55:47;18.88;;;10.00;;
20375;SDS011;10347;51.828;6.466;2023-10-09T11:58:17;16.48;;;10.63;;
20375;SDS011;10347;51.828;6.466;2023-10-09T12:00:50;22.85;;;11.20;;
20375;SDS011;10347;51.828;6.466;2023-10-09T12:03:21;18.48;;;10.82;;
20375;SDS011;10347;51.828;6.466;2023-10-09T12:05:55;13.48;;;9.25;;
20375;SDS011;10347;51.828;6.466;2023-10-09T12:08:24;13.80;;;9.32;;
20375;SDS011;10347;51.828;6.466;2023-10-09T12:10:53;14.25;;;8.82;;
20375;SDS011;10347;51.828;6.466;2023-10-09T12:13:21;16.20;;;9.40;;
20375;SDS011;10347;51.828;6.466;2023-10-09T12:15:48;17.98;;;9.32;;
20375;SDS011;10347;51.828;6.466;2023-10-09T12:18:17;15.57;;;8.82;;
20375;SDS011;10347;51.828;6.466;2023-10-09T12:20:44;17.80;;;9.52;;
20375;SDS011;10347;51.828;6.466;2023-10-09T12:23:27;18.63;;;9.10;;
20375;SDS011;10347;51.828;6.466;2023-10-09T12:25:53;16.90;;;10.07;;
20375;SDS011;10347;51.828;6.466;2023-10-09T12:28:21;14.77;;;9.32;;
20375;SDS011;10347;51.828;6.466;2023-10-09T12:30:48;12.55;;;8.27;;
20375;SDS011;10347;51.828;6.466;2023-10-09T12:33:17;14.18;;;9.13;;
20375;SDS011;10347;51.828;6.466;2023-10-09T12:35:44;12.35;;;7.68;;
20375;SDS011;10347;51.828;6.466;2023-10-09T12:38:11;14.10;;;7.72;;
20375;SDS011;10347;51.828;6.466;2023-10-09T12:40:39;11.85;;;7.72;;
20375;SDS011;10347;51.828;6.466;2023-10-09T12:43:15;12.23;;;7.75;;
20375;SDS011;10347;51.828;6.466;2023-10-09T12:45:44;13.52;;;8.05;;
20375;SDS011;10347;51.828;6.466;2023-10-09T12:48:13;18.58;;;7.65;;
20375;SDS011;10347;51.828;6.466;2023-10-09T12:50:39;14.70;;;7.45;;
20375;SDS011;10347;51.828;6.466;2023-10-09T12:53:09;10.05;;;7.05;;
20375;SDS011;10347;51.828;6.466;2023-10-09T12:55:39;13.25;;;7.65;;
20375;SDS011;10347;51.828;6.466;2023-10-09T12:58:05;12.65;;;7.20;;
20375;SDS011;10347;51.828;6.466;2023-10-09T13:00:38;13.75;;;7.78;;
20375;SDS011;10347;51.828;6.466;2023-10-09T13:03:24;11.45;;;7.18;;
20375;SDS011;10347;51.828;6.466;2023-10-09T13:05:53;15.95;;;6.75;;
20375;SDS011;10347;51.828;6.466;2023-10-09T13:08:27;13.38;;;6.78;;
20375;SDS011;10347;51.828;6.466;2023-10-09T13:10:56;10.73;;;6.63;;
20375;SDS011;10347;51.828;6.466;2023-10-09T13:13:29;12.10;;;6.85;;
20375;SDS011;10347;51.828;6.466;2023-10-09T13:16:15;11.65;;;7.30;;
20375;SDS011;10347;51.828;6.466;2023-10-09T13:21:17;13.05;;;6.43;;
20375;SDS011;10347;51.828;6.466;2023-10-09T13:23:43;12.75;;;6.15;;
20375;SDS011;10347;51.828;6.466;2023-10-09T13:26:12;11.90;;;6.20;;
20375;SDS011;10347;51.828;6.466;2023-10-09T13:28:55;12.23;;;6.63;;
20375;SDS011;10347;51.828;6.466;2023-10-09T13:31:22;11.45;;;6.18;;
20375;SDS011;10347;51.828;6.466;2023-10-09T13:33:51;11.88;;;6.50;;
20375;SDS011;10347;51.828;6.466;2023-10-09T13:36:22;11.52;;;6.63;;
20375;SDS011;10347;51.828;6.466;2023-10-09T13:41:24;14.00;;;6.80;;
20375;SDS011;10347;51.828;6.466;2023-10-09T13:43:54;9.35;;;6.47;;
20375;SDS011;10347;51.828;6.466;2023-10-09T13:46:21;11.88;;;6.07;;
20375;SDS011;10347;51.828;6.466;2023-10-09T13:48:48;9.35;;;6.38;;
20375;SDS011;10347;51.828;6.466;2023-10-09T13:51:14;12.10;;;6.20;;
20375;SDS011;10347;51.828;6.466;2023-10-09T13:53:44;13.05;;;6.25;;
20375;SDS011;10347;51.828;6.466;2023-10-09T13:56:11;11.52;;;6.25;;
20375;SDS011;10347;51.828;6.466;2023-10-09T13:58:39;9.15;;;5.32;;
20375;SDS011;10347;51.828;6.466;2023-10-09T14:01:07;13.90;;;6.20;;
20375;SDS011;10347;51.828;6.466;2023-10-09T14:03:33;9.05;;;5.47;;
20375;SDS011;10347;51.828;6.466;2023-10-09T14:05:59;16.10;;;5.90;;
20375;SDS011;10347;51.828;6.466;2023-10-09T14:08:35;8.52;;;5.35;;
20375;SDS011;10347;51.828;6.466;2023-10-09T14:11:06;10.70;;;5.65;;
20375;SDS011;10347;51.828;6.466;2023-10-09T14:13:38;10.13;;;5.68;;
20375;SDS011;10347;51.828;6.466;2023-10-09T14:16:04;9.48;;;5.50;;
20375;SDS011;10347;51.828;6.466;2023-10-09T14:18:31;9.55;;;5.30;;
20375;SDS011;10347;51.828;6.466;2023-10-09T14:21:00;9.80;;;5.70;;
20375;SDS011;10347;51.828;6.466;2023-10-09T14:23:29;11.68;;;5.63;;
20375;SDS011;10347;51.828;6.466;2023-10-09T14:25:59;10.43;;;5.50;;
20375;SDS011;10347;51.828;6.466;2023-10-09T14:28:26;12.48;;;5.50;;
20375;SDS011;10347;51.828;6.466;2023-10-09T14:30:54;13.82;;;6.15;;
20375;SDS011;10347;51.828;6.466;2023-10-09T14:33:24;8.63;;;5.57;;
20375;SDS011;10347;51.828;6.466;2023-10-09T14:35:52;9.95;;;5.35;;
20375;SDS011;10347;51.828;6.466;2023-10-09T14:38:20;13.38;;;5.60;;
20375;SDS011;10347;51.828;6.466;2023-10-09T14:40:52;9.15;;;4.97;;
20375;SDS011;10347;51.828;6.466;2023-10-09T14:43:22;12.93;;;5.43;;
20375;SDS011;10347;51.828;6.466;2023-10-09T14:45:53;7.68;;;4.75;;
20375;SDS011;10347;51.828;6.466;2023-10-09T14:48:19;15.18;;;5.30;;
20375;SDS011;10347;51.828;6.466;2023-10-09T14:50:51;10.57;;;5.13;;
20375;SDS011;10347;51.828;6.466;2023-10-09T14:53:18;10.07;;;5.05;;
20375;SDS011;10347;51.828;6.466;2023-10-09T14:55:44;9.00;;;5.38;;
20375;SDS011;10347;51.828;6.466;2023-10-09T14:58:11;9.40;;;5.18;;
20375;SDS011;10347;51.828;6.466;2023-10-09T15:00:37;8.85;;;4.80;;
20375;SDS011;10347;51.828;6.466;2023-10-09T15:03:10;10.32;;;5.38;;
20375;SDS011;10347;51.828;6.466;2023-10-09T15:05:39;12.27;;;5.45;;
20375;SDS011;10347;51.828;6.466;2023-10-09T15:08:07;9.35;;;4.93;;
20375;SDS011;10347;51.828;6.466;2023-10-09T15:10:43;11.90;;;4.97;;
20375;SDS011;10347;51.828;6.466;2023-10-09T15:13:10;8.70;;;5.20;;
20375;SDS011;10347;51.828;6.466;2023-10-09T15:15:40;9.07;;;5.22;;
20375;SDS011;10347;51.828;6.466;2023-10-09T15:18:06;14.25;;;5.30;;
20375;SDS011;10347;51.828;6.466;2023-10-09T15:20:32;14.90;;;5.47;;